Time;durP1;ratioP1;P1;durP2;ratioP2;P2;SDS_P1;SDS_P2;PMS_P1;PMS_P2;Temp;Humidity;BMP_temperature;BMP_pressure;BME280_temperature;BME280_humidity;BME280_pressure;Samples;Min_cycle;Max_cycle;Signal;HPM_P1;HPM_P2
2022/05/18 00:00:12;;;;;;;;;;;28.80;40.80;;;;;;5118413;28;1171;-42
2022/05/18 00:02:41;;;;;;;;;;;28.80;40.70;;;;;;5118229;28;940;-42
2022/05/18 00:05:08;;;;;;;;;;;28.80;40.70;;;;;;5118283;28;1012;-41
2022/05/18 00:07:35;;;;;;;;;;;28.80;40.80;;;;;;5117440;28;2169;-41
2022/05/18 00:10:01;;;;;;;;;;;28.80;40.70;;;;;;5118227;28;937;-40
2022/05/18 00:12:28;;;;;;;;;;;28.70;40.60;;;;;;5118072;28;952;-41
2022/05/18 00:14:55;;;;;;;;;;;28.70;40.60;;;;;;5118068;28;980;-41
2022/05/18 00:17:22;;;;;;;;;;;28.70;40.70;;;;;;5117897;28;978;-42
2022/05/18 00:19:50;;;;;;;;;;;28.70;40.60;;;;;;5118055;28;1008;-42
2022/05/18 00:22:16;;;;;;;;;;;28.70;40.60;;;;;;5117947;28;1032;-40
2022/05/18 00:24:43;;;;;;;;;;;28.70;40.60;;;;;;5117564;28;999;-40
2022/05/18 00:27:10;;;;;;;;;;;28.70;40.50;;;;;;5117864;28;974;-40
2022/05/18 00:29:36;;;;;;;;;;;28.70;40.60;;;;;;5117930;28;1905;-41
2022/05/18 00:32:03;;;;;;;;;;;28.70;40.60;;;;;;5118624;28;988;-41
2022/05/18 00:34:30;;;;;;;;;;;28.70;40.60;;;;;;5118441;28;997;-41
2022/05/18 00:36:58;;;;;;;;;;;28.70;40.50;;;;;;5117809;28;952;-41
2022/05/18 00:39:25;;;;;;;;;;;28.70;40.50;;;;;;5118989;28;960;-41
2022/05/18 00:41:51;;;;;;;;;;;28.70;40.50;;;;;;5122126;28;993;-40
2022/05/18 00:44:18;;;;;;;;;;;28.70;40.50;;;;;;5122373;28;984;-41
2022/05/18 00:46:45;;;;;;;;;;;28.70;40.50;;;;;;5121614;28;1007;-38
2022/05/18 00:49:12;;;;;;;;;;;28.60;40.50;;;;;;5122228;28;1913;-39
2022/05/18 00:51:40;;;;;;;;;;;28.60;40.40;;;;;;5121982;28;929;-39
2022/05/18 00:54:11;;;;;;;;;;;28.70;40.50;;;;;;5122384;28;980;-38
2022/05/18 00:56:40;;;;;;;;;;;28.70;40.50;;;;;;5122158;28;959;-41
2022/05/18 00:59:09;;;;;;;;;;;28.70;40.40;;;;;;5121620;28;1491;-41
2022/05/18 01:01:36;;;;;;;;;;;28.60;40.40;;;;;;5121723;28;975;-37
2022/05/18 01:04:04;;;;;;;;;;;28.60;40.40;;;;;;5121845;28;1008;-37
2022/05/18 01:06:35;;;;;;;;;;;28.60;40.40;;;;;;5120685;28;1051;-37
2022/05/18 01:09:04;;;;;;;;;;;28.60;40.40;;;;;;5121664;28;1906;-40
2022/05/18 01:11:33;;;;;;;;;;;28.60;40.40;;;;;;5121658;28;1004;-40
2022/05/18 01:13:59;;;;;;;;;;;28.60;40.50;;;;;;5121351;28;1437;-39
2022/05/18 01:16:27;;;;;;;;;;;28.60;40.50;;;;;;5121306;28;900;-39
2022/05/18 01:18:55;;;;;;;;;;;28.60;40.50;;;;;;5121976;28;976;-40
2022/05/18 01:21:21;;;;;;;;;;;28.60;40.50;;;;;;5121677;28;1014;-40
2022/05/18 01:23:52;;;;;;;;;;;28.60;40.50;;;;;;5121100;28;976;-37
2022/05/18 01:26:20;;;;;;;;;;;28.60;40.50;;;;;;5120895;28;1003;-38
2022/05/18 01:28:51;;;;;;;;;;;28.60;40.50;;;;;;5121083;28;1901;-40
2022/05/18 01:31:18;;;;;;;;;;;28.50;40.40;;;;;;5121321;28;945;-40
2022/05/18 01:33:44;;;;;;;;;;;28.50;40.40;;;;;;5121264;28;1030;-40
2022/05/18 01:36:11;;;;;;;;;;;28.50;40.40;;;;;;5121317;28;1110;-38
2022/05/18 01:38:38;;;;;;;;;;;28.50;40.50;;;;;;5121064;28;1016;-39
2022/05/18 01:41:09;;;;;;;;;;;28.50;40.40;;;;;;5120410;28;992;-37
2022/05/18 01:43:37;;;;;;;;;;;28.50;40.50;;;;;;5120908;28;1009;-38
2022/05/18 01:46:07;;;;;;;;;;;28.50;40.40;;;;;;5121214;28;880;-38
2022/05/18 01:48:35;;;;;;;;;;;28.50;40.40;;;;;;5119872;28;1980;-38
2022/05/18 01:51:02;;;;;;;;;;;28.50;40.40;;;;;;5119249;28;972;-40
2022/05/18 01:53:29;;;;;;;;;;;28.50;40.40;;;;;;5120228;28;981;-41
2022/05/18 01:55:57;;;;;;;;;;;28.50;40.40;;;;;;5120060;28;945;-38
2022/05/18 01:58:24;;;;;;;;;;;28.50;40.40;;;;;;5119987;28;1114;-37
2022/05/18 02:00:51;;;;;;;;;;;28.50;40.40;;;;;;5120754;28;940;-41
2022/05/18 02:03:20;;;;;;;;;;;28.40;40.30;;;;;;5120262;28;1087;-38
2022/05/18 02:05:47;;;;;;;;;;;28.50;40.30;;;;;;5120276;28;980;-37
2022/05/18 02:08:15;;;;;;;;;;;28.40;40.50;;;;;;5120208;28;1972;-38
2022/05/18 02:10:43;;;;;;;;;;;28.40;40.40;;;;;;5120011;28;1016;-40
2022/05/18 02:13:10;;;;;;;;;;;28.50;40.40;;;;;;5119551;28;996;-37
2022/05/18 02:15:37;;;;;;;;;;;28.40;40.20;;;;;;5120179;28;869;-41
2022/05/18 02:18:04;;;;;;;;;;;28.50;40.30;;;;;;5120425;28;948;-38
2022/05/18 02:20:32;;;;;;;;;;;28.40;40.30;;;;;;5120156;28;932;-39
2022/05/18 02:22:58;;;;;;;;;;;28.40;40.30;;;;;;5120014;28;941;-38
2022/05/18 02:25:26;;;;;;;;;;;28.40;40.30;;;;;;5120273;28;1015;-38
2022/05/18 02:27:53;;;;;;;;;;;28.40;40.20;;;;;;5120120;28;953;-37
2022/05/18 02:30:19;;;;;;;;;;;28.40;40.20;;;;;;5120068;28;1902;-41
2022/05/18 02:32:46;;;;;;;;;;;28.40;40.20;;;;;;5119987;28;980;-41
2022/05/18 02:35:13;;;;;;;;;;;28.40;40.30;;;;;;5120056;28;944;-41
2022/05/18 02:37:41;;;;;;;;;;;28.40;40.20;;;;;;5119353;28;938;-42
2022/05/18 02:40:45;;;;;;;;;;;28.40;40.30;;;;;;5119494;28;931;-42
2022/05/18 02:43:12;;;;;;;;;;;28.40;40.20;;;;;;5119808;28;941;-41
2022/05/18 02:45:38;;;;;;;;;;;28.30;40.20;;;;;;5119634;28;924;-40
2022/05/18 02:48:05;;;;;;;;;;;28.30;40.20;;;;;;5119583;28;1016;-42
2022/05/18 02:50:33;;;;;;;;;;;28.30;40.20;;;;;;5119657;28;1901;-40
2022/05/18 02:53:01;;;;;;;;;;;28.30;40.30;;;;;;5119488;28;952;-41
2022/05/18 02:58:12;;;;;;;;;;;28.30;40.20;;;;;;5119316;28;1268;-38
2022/05/18 03:00:39;;;;;;;;;;;28.30;40.20;;;;;;5119252;28;1043;-39
2022/05/18 03:03:06;;;;;;;;;;;28.30;40.20;;;;;;5117849;28;981;-40
2022/05/18 03:05:33;;;;;;;;;;;28.30;40.30;;;;;;5118878;28;953;-41
2022/05/18 03:08:01;;;;;;;;;;;28.30;40.10;;;;;;5119238;28;982;-41
2022/05/18 03:10:28;;;;;;;;;;;28.30;40.20;;;;;;5119193;28;1982;-40
2022/05/18 03:12:55;;;;;;;;;;;28.30;40.20;;;;;;5118849;28;940;-42
2022/05/18 03:15:21;;;;;;;;;;;28.30;40.30;;;;;;5118529;28;954;-40
2022/05/18 03:17:48;;;;;;;;;;;28.20;40.20;;;;;;5119041;28;1000;-41
2022/05/18 03:25:41;;;;;;;;;;;28.30;40.20;;;;;;5117929;28;673;-41
2022/05/18 03:28:08;;;;;;;;;;;28.30;40.30;;;;;;5118545;28;984;-41
2022/05/18 03:30:35;;;;;;;;;;;28.20;40.20;;;;;;5118608;28;1984;-38
2022/05/18 03:33:01;;;;;;;;;;;28.20;40.30;;;;;;5118737;28;997;-42
2022/05/18 03:35:28;;;;;;;;;;;28.20;40.30;;;;;;5117994;28;1012;-42
2022/05/18 03:37:55;;;;;;;;;;;28.20;40.30;;;;;;5117697;28;1031;-42
2022/05/18 03:40:22;;;;;;;;;;;28.20;40.30;;;;;;5117187;28;999;-41
2022/05/18 03:42:50;;;;;;;;;;;28.20;40.30;;;;;;5118584;28;950;-38
2022/05/18 03:45:17;;;;;;;;;;;28.20;40.20;;;;;;5117581;28;1016;-41
2022/05/18 03:47:43;;;;;;;;;;;28.20;40.30;;;;;;5117649;28;952;-42
2022/05/18 03:50:12;;;;;;;;;;;28.20;40.30;;;;;;5118790;28;1929;-40
2022/05/18 03:52:39;;;;;;;;;;;28.10;40.30;;;;;;5117702;28;974;-42
2022/05/18 03:55:06;;;;;;;;;;;28.20;40.40;;;;;;5118210;28;1000;-42
2022/05/18 03:57:33;;;;;;;;;;;28.20;40.40;;;;;;5117805;28;956;-42
2022/05/18 04:00:01;;;;;;;;;;;28.20;40.30;;;;;;5117476;28;1169;-42
2022/05/18 04:02:27;;;;;;;;;;;28.10;40.30;;;;;;5117806;28;1041;-39
2022/05/18 04:04:54;;;;;;;;;;;28.10;40.30;;;;;;5117595;28;1055;-39
2022/05/18 04:07:21;;;;;;;;;;;28.10;40.30;;;;;;5117706;28;944;-41
2022/05/18 04:09:47;;;;;;;;;;;28.10;40.40;;;;;;5117766;28;1882;-40
2022/05/18 04:12:15;;;;;;;;;;;28.10;40.30;;;;;;5117612;28;956;-38
2022/05/18 04:14:41;;;;;;;;;;;28.10;40.40;;;;;;5116852;28;1024;-42
2022/05/18 04:17:09;;;;;;;;;;;28.10;40.40;;;;;;5118122;28;959;-41
2022/05/18 04:19:36;;;;;;;;;;;28.10;40.40;;;;;;5118058;28;984;-40
2022/05/18 04:22:03;;;;;;;;;;;28.10;40.40;;;;;;5117885;28;1019;-41
2022/05/18 04:24:29;;;;;;;;;;;28.10;40.50;;;;;;5116613;28;1003;-39
2022/05/18 04:26:57;;;;;;;;;;;28.10;40.60;;;;;;5116191;28;996;-41
2022/05/18 04:29:23;;;;;;;;;;;28.10;40.60;;;;;;5117288;28;1985;-41
2022/05/18 04:31:50;;;;;;;;;;;28.10;40.50;;;;;;5117054;28;1011;-41
2022/05/18 04:34:18;;;;;;;;;;;28.20;40.70;;;;;;5117213;28;992;-40
2022/05/18 04:36:45;;;;;;;;;;;28.20;40.70;;;;;;5116230;28;1050;-40
2022/05/18 04:39:11;;;;;;;;;;;28.20;40.60;;;;;;5117125;28;940;-39
2022/05/18 04:41:38;;;;;;;;;;;28.20;40.70;;;;;;5116112;28;1008;-41
2022/05/18 04:44:05;;;;;;;;;;;28.20;40.90;;;;;;5116605;28;1111;-42
2022/05/18 04:46:32;;;;;;;;;;;28.20;40.90;;;;;;5116675;28;986;-41
2022/05/18 04:48:58;;;;;;;;;;;28.20;41.00;;;;;;5117159;28;1905;-41
2022/05/18 04:51:27;;;;;;;;;;;28.20;40.90;;;;;;5116952;28;991;-40
2022/05/18 04:53:53;;;;;;;;;;;28.20;41.10;;;;;;5116083;28;1011;-40
2022/05/18 04:56:20;;;;;;;;;;;28.20;41.00;;;;;;5115402;28;1004;-41
2022/05/18 04:58:47;;;;;;;;;;;28.20;41.10;;;;;;5115890;28;1011;-39
2022/05/18 05:01:13;;;;;;;;;;;28.20;41.30;;;;;;5115331;28;1023;-41
2022/05/18 05:03:40;;;;;;;;;;;28.20;41.20;;;;;;5115402;28;975;-40
2022/05/18 05:06:07;;;;;;;;;;;28.20;41.20;;;;;;5115056;28;1019;-39
2022/05/18 05:08:35;;;;;;;;;;;28.20;41.20;;;;;;5112838;28;1238;-40
2022/05/18 05:11:02;;;;;;;;;;;28.20;41.20;;;;;;5114011;28;1984;-41
2022/05/18 05:13:29;;;;;;;;;;;28.20;41.30;;;;;;5115171;28;1000;-40
2022/05/18 05:15:59;;;;;;;;;;;28.20;41.30;;;;;;5115775;28;968;-41
2022/05/18 05:18:26;;;;;;;;;;;28.20;41.30;;;;;;5113952;28;953;-41
2022/05/18 05:20:53;;;;;;;;;;;28.20;42.50;;;;;;5114966;28;1012;-41
2022/05/18 05:23:20;;;;;;;;;;;28.30;41.40;;;;;;5112706;28;1001;-41
2022/05/18 05:25:48;;;;;;;;;;;28.20;41.30;;;;;;5112357;28;952;-39
2022/05/18 05:28:15;;;;;;;;;;;28.30;41.40;;;;;;5116847;28;949;-40
2022/05/18 05:30:42;;;;;;;;;;;28.30;41.50;;;;;;5116870;28;1897;-41
2022/05/18 05:33:09;;;;;;;;;;;28.30;41.40;;;;;;5117225;28;1816;-42
2022/05/18 05:35:36;;;;;;;;;;;28.30;41.40;;;;;;5117132;28;1034;-42
2022/05/18 05:38:02;;;;;;;;;;;28.20;41.30;;;;;;5117613;28;1000;-39
2022/05/18 05:40:29;;;;;;;;;;;28.20;41.40;;;;;;5117888;28;976;-40
2022/05/18 05:42:57;;;;;;;;;;;28.30;41.40;;;;;;5117719;28;1004;-38
2022/05/18 05:45:24;;;;;;;;;;;28.30;41.40;;;;;;5117199;28;1009;-40
2022/05/18 05:47:51;;;;;;;;;;;28.30;41.40;;;;;;5103483;28;1793;-37
2022/05/18 05:50:18;;;;;;;;;;;28.30;41.40;;;;;;5098443;28;1980;-38
2022/05/18 05:52:44;;;;;;;;;;;28.30;41.40;;;;;;5096851;28;953;-41
2022/05/18 05:55:11;;;;;;;;;;;28.20;42.50;;;;;;5097236;28;1007;-37
2022/05/18 05:57:38;;;;;;;;;;;28.30;41.40;;;;;;5096725;28;1032;-40
2022/05/18 06:00:07;;;;;;;;;;;28.30;41.30;;;;;;5096670;28;1122;-37
2022/05/18 06:02:34;;;;;;;;;;;28.30;41.40;;;;;;5097799;28;961;-40
2022/05/18 06:05:03;;;;;;;;;;;28.30;41.30;;;;;;5097442;28;1012;-38
2022/05/18 06:07:29;;;;;;;;;;;28.40;41.30;;;;;;5096553;28;981;-41
2022/05/18 06:09:56;;;;;;;;;;;28.40;40.90;;;;;;5096706;28;1878;-39
2022/05/18 06:12:24;;;;;;;;;;;28.50;40.80;;;;;;5095893;28;994;-38
2022/05/18 06:14:51;;;;;;;;;;;28.50;40.90;;;;;;5073458;28;876;-39
2022/05/18 06:17:19;;;;;;;;;;;28.50;41.00;;;;;;5078760;28;949;-41
2022/05/18 06:19:46;;;;;;;;;;;28.50;41.00;;;;;;5097148;28;949;-39
2022/05/18 06:22:12;;;;;;;;;;;28.50;41.10;;;;;;5096620;28;1047;-43
2022/05/18 06:24:40;;;;;;;;;;;28.60;41.30;;;;;;5094698;28;976;-43
2022/05/18 06:27:07;;;;;;;;;;;28.50;41.10;;;;;;5096190;28;1129;-43
2022/05/18 06:29:35;;;;;;;;;;;28.60;41.40;;;;;;5096405;28;1913;-43
2022/05/18 06:32:01;;;;;;;;;;;28.60;41.30;;;;;;5097309;28;1121;-43
2022/05/18 06:34:30;;;;;;;;;;;28.60;41.40;;;;;;5097405;28;1013;-37
2022/05/18 06:36:56;;;;;;;;;;;28.60;41.60;;;;;;5096865;28;1012;-42
2022/05/18 06:39:23;;;;;;;;;;;28.70;41.50;;;;;;5097405;28;911;-42
2022/05/18 06:41:50;;;;;;;;;;;28.60;41.50;;;;;;5096035;28;1022;-42
2022/05/18 06:44:17;;;;;;;;;;;28.60;41.60;;;;;;5074349;28;999;-43
2022/05/18 06:46:43;;;;;;;;;;;28.60;41.60;;;;;;5071080;28;1431;-42
2022/05/18 06:49:11;;;;;;;;;;;28.60;41.60;;;;;;5071435;28;1007;-42
2022/05/18 06:51:40;;;;;;;;;;;28.60;41.70;;;;;;5072359;28;1981;-42
2022/05/18 06:54:08;;;;;;;;;;;28.50;41.60;;;;;;5073485;28;1022;-44
2022/05/18 06:56:37;;;;;;;;;;;28.60;41.60;;;;;;5071130;28;1782;-43
2022/05/18 06:59:05;;;;;;;;;;;28.60;41.70;;;;;;5070271;28;1499;-44
2022/05/18 07:01:31;;;;;;;;;;;28.50;41.50;;;;;;5085923;28;758;-44
2022/05/18 07:03:59;;;;;;;;;;;28.60;41.60;;;;;;5096677;28;1093;-44
2022/05/18 07:06:27;;;;;;;;;;;28.60;41.60;;;;;;5096503;28;937;-44
2022/05/18 07:08:57;;;;;;;;;;;28.60;41.60;;;;;;5095743;28;994;-44
2022/05/18 07:11:24;;;;;;;;;;;28.60;41.50;;;;;;5096338;28;1992;-42
2022/05/18 07:13:53;;;;;;;;;;;28.60;41.50;;;;;;5095548;28;1015;-42
2022/05/18 07:16:20;;;;;;;;;;;28.60;41.50;;;;;;5095789;28;1028;-42
2022/05/18 07:18:48;;;;;;;;;;;28.60;41.60;;;;;;5096093;28;972;-42
2022/05/18 07:21:15;;;;;;;;;;;28.60;41.50;;;;;;5095928;28;972;-42
2022/05/18 07:23:42;;;;;;;;;;;28.60;41.50;;;;;;5095804;28;1806;-42
2022/05/18 07:26:10;;;;;;;;;;;28.60;41.50;;;;;;5095434;28;1016;-42
2022/05/18 07:28:39;;;;;;;;;;;28.60;41.40;;;;;;5094815;28;933;-44
2022/05/18 07:31:06;;;;;;;;;;;28.60;41.50;;;;;;5095136;28;1914;-42
2022/05/18 07:33:33;;;;;;;;;;;28.60;41.50;;;;;;5094785;28;876;-42
2022/05/18 07:35:59;;;;;;;;;;;28.60;41.50;;;;;;5094374;28;996;-43
2022/05/18 07:38:27;;;;;;;;;;;28.60;41.40;;;;;;5096004;28;929;-42
2022/05/18 07:40:54;;;;;;;;;;;28.60;41.40;;;;;;5095000;28;965;-42
2022/05/18 07:43:22;;;;;;;;;;;28.60;41.40;;;;;;5096701;28;968;-42
2022/05/18 07:45:50;;;;;;;;;;;28.60;41.40;;;;;;5095331;28;1008;-42
2022/05/18 07:48:17;;;;;;;;;;;28.60;41.40;;;;;;5094888;28;984;-42
2022/05/18 07:50:44;;;;;;;;;;;28.60;41.40;;;;;;5095264;28;1931;-43
2022/05/18 07:53:10;;;;;;;;;;;28.60;41.40;;;;;;5094733;28;1025;-42
2022/05/18 07:55:37;;;;;;;;;;;28.60;41.40;;;;;;5094533;28;1000;-42
2022/05/18 07:58:05;;;;;;;;;;;28.60;41.50;;;;;;5095067;28;1047;-42
2022/05/18 08:00:33;;;;;;;;;;;28.60;41.50;;;;;;5093652;28;881;-42
2022/05/18 08:03:00;;;;;;;;;;;28.60;41.40;;;;;;5094211;28;997;-42
2022/05/18 08:05:28;;;;;;;;;;;28.60;41.40;;;;;;5095192;28;933;-42
2022/05/18 08:07:55;;;;;;;;;;;28.60;41.40;;;;;;5095116;28;993;-42
2022/05/18 08:15:53;;;;;;;;;;;28.60;41.40;;;;;;5111922;28;1973;-43
2022/05/18 08:18:20;;;;;;;;;;;28.60;41.40;;;;;;5115002;28;1826;-42
2022/05/18 08:20:48;;;;;;;;;;;28.60;41.40;;;;;;5115415;28;960;-43
2022/05/18 08:23:16;;;;;;;;;;;28.60;41.40;;;;;;5114748;28;969;-42
2022/05/18 08:25:43;;;;;;;;;;;28.60;41.40;;;;;;5114437;28;1027;-42
2022/05/18 08:28:10;;;;;;;;;;;28.60;41.40;;;;;;5114535;28;1004;-42
2022/05/18 08:30:39;;;;;;;;;;;28.60;41.40;;;;;;5115341;28;1982;-43
2022/05/18 08:33:07;;;;;;;;;;;28.60;41.40;;;;;;5115415;28;997;-43
2022/05/18 08:35:34;;;;;;;;;;;28.70;41.40;;;;;;5115995;28;1028;-43
2022/05/18 08:38:00;;;;;;;;;;;28.70;41.50;;;;;;5115678;28;1044;-44
2022/05/18 08:40:36;;;;;;;;;;;28.70;41.50;;;;;;5114999;28;936;-44
2022/05/18 08:43:04;;;;;;;;;;;28.70;41.40;;;;;;5114918;28;1008;-44
2022/05/18 08:45:32;;;;;;;;;;;28.70;41.40;;;;;;5116110;28;1032;-44
2022/05/18 08:48:03;;;;;;;;;;;28.70;41.40;;;;;;5115236;28;941;-44
2022/05/18 08:50:31;;;;;;;;;;;28.70;41.40;;;;;;5115768;28;1913;-44
2022/05/18 08:53:04;;;;;;;;;;;28.70;41.40;;;;;;5115541;28;1016;-44
2022/05/18 08:55:36;;;;;;;;;;;28.70;41.40;;;;;;5115256;28;1004;-44
2022/05/18 08:58:05;;;;;;;;;;;28.70;41.30;;;;;;5115794;28;1085;-44
2022/05/18 09:00:33;;;;;;;;;;;28.70;41.30;;;;;;5115262;28;1030;-44
2022/05/18 09:03:03;;;;;;;;;;;28.70;41.30;;;;;;5118052;28;1843;-44
2022/05/18 09:05:34;;;;;;;;;;;28.70;41.30;;;;;;5118876;28;1864;-44
2022/05/18 09:08:05;;;;;;;;;;;28.70;41.30;;;;;;5118269;28;1001;-43
2022/05/18 09:10:34;;;;;;;;;;;28.70;41.40;;;;;;5119093;28;1893;-44
2022/05/18 09:13:01;;;;;;;;;;;28.70;41.30;;;;;;5116851;28;1008;-44
2022/05/18 09:15:36;;;;;;;;;;;28.80;41.40;;;;;;5118196;28;932;-43
2022/05/18 09:18:07;;;;;;;;;;;28.70;41.30;;;;;;5118252;28;1549;-44
2022/05/18 09:20:38;;;;;;;;;;;28.70;41.30;;;;;;5117974;28;1008;-44
2022/05/18 09:23:12;;;;;;;;;;;28.70;41.30;;;;;;5118684;28;976;-44
2022/05/18 09:25:46;;;;;;;;;;;28.80;41.40;;;;;;5116687;28;920;-44
2022/05/18 09:28:18;;;;;;;;;;;28.70;41.30;;;;;;5117280;28;1002;-44
2022/05/18 09:30:50;;;;;;;;;;;28.70;41.30;;;;;;5117782;28;1906;-44
2022/05/18 09:33:23;;;;;;;;;;;28.80;41.40;;;;;;5118588;28;881;-43
2022/05/18 09:35:56;;;;;;;;;;;28.70;41.30;;;;;;5117538;28;999;-43
2022/05/18 09:38:27;;;;;;;;;;;28.80;41.40;;;;;;5117566;28;964;-43
2022/05/18 09:40:53;;;;;;;;;;;28.80;41.40;;;;;;5117422;28;964;-44
2022/05/18 09:43:23;;;;;;;;;;;28.80;41.40;;;;;;5118444;28;1004;-44
2022/05/18 09:45:50;;;;;;;;;;;28.80;41.40;;;;;;5117507;28;1019;-44
2022/05/18 09:48:19;;;;;;;;;;;28.80;41.40;;;;;;5115645;28;975;-43
2022/05/18 09:50:48;;;;;;;;;;;28.70;41.30;;;;;;5117823;28;1906;-44
2022/05/18 09:53:16;;;;;;;;;;;28.80;41.40;;;;;;5117511;28;989;-44
2022/05/18 09:55:45;;;;;;;;;;;28.80;41.40;;;;;;5116864;28;935;-44
2022/05/18 09:58:16;;;;;;;;;;;28.70;41.30;;;;;;5117902;28;1224;-42
2022/05/18 10:00:42;;;;;;;;;;;28.80;41.40;;;;;;5117702;28;988;-44
2022/05/18 10:08:49;;;;;;;;;;;28.80;41.40;;;;;;5116586;28;1024;-43
2022/05/18 10:11:17;;;;;;;;;;;28.80;41.40;;;;;;5116922;28;1905;-44
2022/05/18 10:13:53;;;;;;;;;;;28.80;41.40;;;;;;5115884;28;1008;-44
2022/05/18 10:16:21;;;;;;;;;;;28.80;41.30;;;;;;5116522;28;1009;-44
2022/05/18 10:18:50;;;;;;;;;;;28.80;41.30;;;;;;5116306;28;1031;-42
2022/05/18 10:21:24;;;;;;;;;;;28.80;41.40;;;;;;5116755;28;1040;-44
2022/05/18 10:23:56;;;;;;;;;;;28.80;41.30;;;;;;5116537;28;1140;-42
2022/05/18 10:26:26;;;;;;;;;;;28.80;41.30;;;;;;5116633;28;976;-43
2022/05/18 10:28:58;;;;;;;;;;;28.80;41.30;;;;;;5116087;28;1004;-43
2022/05/18 10:31:33;;;;;;;;;;;28.80;41.30;;;;;;5116254;28;1909;-42
2022/05/18 10:34:13;;;;;;;;;;;28.90;41.40;;;;;;5116826;28;1013;-43
2022/05/18 10:36:46;;;;;;;;;;;28.80;41.20;;;;;;5115660;28;1023;-43
2022/05/18 10:39:28;;;;;;;;;;;28.90;41.30;;;;;;5116327;28;1109;-44
2022/05/18 10:41:55;;;;;;;;;;;28.90;41.30;;;;;;5115956;28;968;-44
2022/05/18 10:44:23;;;;;;;;;;;28.90;41.30;;;;;;5115683;28;826;-43
2022/05/18 10:46:50;;;;;;;;;;;28.90;41.30;;;;;;5114623;28;1580;-44
2022/05/18 10:49:26;;;;;;;;;;;28.90;41.30;;;;;;5115630;28;953;-44
2022/05/18 10:51:53;;;;;;;;;;;28.90;41.20;;;;;;5115689;28;1902;-44
2022/05/18 10:54:24;;;;;;;;;;;28.90;41.30;;;;;;5114934;28;1040;-44
2022/05/18 10:56:51;;;;;;;;;;;28.90;41.30;;;;;;5113950;28;914;-44
2022/05/18 10:59:34;;;;;;;;;;;28.90;41.30;;;;;;5115282;28;1067;-43
2022/05/18 11:02:08;;;;;;;;;;;28.90;41.20;;;;;;5114844;28;932;-44
2022/05/18 11:04:41;;;;;;;;;;;28.90;41.20;;;;;;5114832;28;965;-42
2022/05/18 11:07:08;;;;;;;;;;;28.90;41.20;;;;;;5115577;28;993;-43
2022/05/18 11:09:37;;;;;;;;;;;28.90;41.20;;;;;;5113680;28;932;-43
2022/05/18 11:12:07;;;;;;;;;;;28.90;41.20;;;;;;5115169;28;1906;-43
2022/05/18 11:14:39;;;;;;;;;;;28.90;41.20;;;;;;5113647;28;945;-42
2022/05/18 11:17:11;;;;;;;;;;;28.90;41.20;;;;;;5114845;28;1000;-44
2022/05/18 11:19:42;;;;;;;;;;;28.90;41.30;;;;;;5115201;28;1008;-42
2022/05/18 11:22:26;;;;;;;;;;;28.90;41.20;;;;;;5115535;28;972;-46
2022/05/18 11:25:01;;;;;;;;;;;28.90;41.20;;;;;;5114917;28;919;-44
2022/05/18 11:27:32;;;;;;;;;;;28.90;41.20;;;;;;5115100;28;1126;-46
2022/05/18 11:30:04;;;;;;;;;;;28.90;41.20;;;;;;5116606;28;1409;-44
2022/05/18 11:32:44;;;;;;;;;;;28.90;41.30;;;;;;5116571;28;1909;-43
2022/05/18 11:35:19;;;;;;;;;;;28.90;41.20;;;;;;5115697;28;1323;-43
2022/05/18 11:37:53;;;;;;;;;;;28.90;41.20;;;;;;5115273;28;1003;-43
2022/05/18 11:40:26;;;;;;;;;;;28.90;41.20;;;;;;5114391;28;896;-43
2022/05/18 11:43:01;;;;;;;;;;;28.90;41.20;;;;;;5116155;28;933;-44
2022/05/18 11:45:33;;;;;;;;;;;29.00;41.10;;;;;;5115353;28;1011;-44
2022/05/18 11:48:12;;;;;;;;;;;29.00;41.10;;;;;;5115383;28;1016;-44
2022/05/18 11:50:42;;;;;;;;;;;29.10;41.20;;;;;;5115948;28;944;-43
2022/05/18 11:53:14;;;;;;;;;;;29.00;41.10;;;;;;5116003;28;1914;-44
2022/05/18 11:55:48;;;;;;;;;;;29.10;41.10;;;;;;5115325;28;1062;-44
2022/05/18 11:58:24;;;;;;;;;;;29.10;41.10;;;;;;5115161;28;1433;-44
2022/05/18 12:00:56;;;;;;;;;;;29.10;41.10;;;;;;5114796;28;952;-44
2022/05/18 12:03:37;;;;;;;;;;;29.10;41.10;;;;;;5114525;28;996;-44
2022/05/18 12:06:14;;;;;;;;;;;29.10;41.20;;;;;;5115688;28;980;-44
2022/05/18 12:08:54;;;;;;;;;;;29.10;41.10;;;;;;5114604;28;1011;-44
2022/05/18 12:11:31;;;;;;;;;;;29.10;41.10;;;;;;5115561;28;1906;-44
2022/05/18 12:14:05;;;;;;;;;;;29.10;42.20;;;;;;5096894;28;1787;-42
2022/05/18 12:16:39;;;;;;;;;;;29.10;41.10;;;;;;5114453;28;1719;-44
2022/05/18 12:19:09;;;;;;;;;;;29.10;41.10;;;;;;5116027;28;1424;-43
2022/05/18 12:21:39;;;;;;;;;;;29.10;41.10;;;;;;5117163;28;1135;-43
2022/05/18 12:24:06;;;;;;;;;;;29.10;41.20;;;;;;5116625;28;1008;-42
2022/05/18 12:26:36;;;;;;;;;;;29.10;41.20;;;;;;5115311;28;1172;-43
2022/05/18 12:29:04;;;;;;;;;;;29.10;41.10;;;;;;5114672;28;1000;-43
2022/05/18 12:31:31;;;;;;;;;;;29.10;41.10;;;;;;5114346;28;1918;-42
2022/05/18 12:34:03;;;;;;;;;;;29.10;41.10;;;;;;5115647;28;1010;-40
2022/05/18 12:36:33;;;;;;;;;;;29.10;41.10;;;;;;5117800;28;999;-42
2022/05/18 12:39:09;;;;;;;;;;;29.10;41.10;;;;;;5119642;28;1016;-42
2022/05/18 12:41:38;;;;;;;;;;;29.10;41.10;;;;;;5118445;28;944;-44
2022/05/18 12:44:07;;;;;;;;;;;29.20;41.10;;;;;;5118738;28;897;-44
2022/05/18 12:46:37;;;;;;;;;;;29.10;41.10;;;;;;5118757;28;884;-44
2022/05/18 12:49:05;;;;;;;;;;;29.20;41.20;;;;;;5119068;28;1033;-44
2022/05/18 12:51:36;;;;;;;;;;;29.20;41.10;;;;;;5118859;28;1983;-44
2022/05/18 12:54:17;;;;;;;;;;;29.20;41.10;;;;;;5116855;28;997;-44
2022/05/18 12:56:53;;;;;;;;;;;29.20;41.10;;;;;;5117389;28;1003;-44
2022/05/18 12:59:21;;;;;;;;;;;29.20;41.10;;;;;;5115527;28;1040;-44
2022/05/18 13:01:52;;;;;;;;;;;29.20;41.10;;;;;;5115960;28;1026;-44
2022/05/18 13:04:38;;;;;;;;;;;29.20;41.10;;;;;;5115978;28;830;-44
2022/05/18 13:07:19;;;;;;;;;;;29.20;41.10;;;;;;5103383;28;1401;-43
2022/05/18 13:09:47;;;;;;;;;;;29.30;41.20;;;;;;5116480;28;883;-44
2022/05/18 13:12:32;;;;;;;;;;;29.30;41.20;;;;;;5116203;28;1913;-44
2022/05/18 13:15:03;;;;;;;;;;;29.30;41.10;;;;;;5116025;28;1052;-45
2022/05/18 13:17:49;;;;;;;;;;;29.30;41.20;;;;;;5115858;28;1015;-44
2022/05/18 13:20:34;;;;;;;;;;;29.30;41.30;;;;;;5116083;28;1000;-44
2022/05/18 13:23:02;;;;;;;;;;;29.30;42.20;;;;;;5114785;28;993;-44
2022/05/18 13:25:29;;;;;;;;;;;29.30;41.10;;;;;;5114788;28;912;-44
2022/05/18 13:27:57;;;;;;;;;;;29.30;41.20;;;;;;5115271;28;973;-43
2022/05/18 13:30:39;;;;;;;;;;;29.30;41.10;;;;;;5114660;28;972;-44
2022/05/18 13:33:06;;;;;;;;;;;29.30;41.10;;;;;;5115581;28;1961;-44
2022/05/18 13:35:34;;;;;;;;;;;29.40;41.10;;;;;;5114230;28;991;-44
2022/05/18 13:38:05;;;;;;;;;;;29.40;42.30;;;;;;5116221;28;872;-44
2022/05/18 13:40:33;;;;;;;;;;;29.40;41.10;;;;;;5116164;28;1047;-44
2022/05/18 13:43:00;;;;;;;;;;;29.40;41.00;;;;;;5116875;28;1003;-44
2022/05/18 13:45:27;;;;;;;;;;;29.50;41.10;;;;;;5116979;28;1044;-44
2022/05/18 13:47:55;;;;;;;;;;;29.40;42.10;;;;;;5117206;28;940;-44
2022/05/18 13:50:26;;;;;;;;;;;29.50;41.00;;;;;;5116455;28;956;-44
2022/05/18 13:52:55;;;;;;;;;;;29.50;41.00;;;;;;5116525;28;1917;-44
2022/05/18 13:55:23;;;;;;;;;;;29.50;41.00;;;;;;5114685;28;987;-44
2022/05/18 13:57:51;;;;;;;;;;;29.50;41.10;;;;;;5114709;28;1052;-43
2022/05/18 14:00:21;;;;;;;;;;;29.60;40.90;;;;;;5115444;28;1065;-44
2022/05/18 14:02:48;;;;;;;;;;;29.60;40.80;;;;;;5116158;28;994;-43
2022/05/18 14:05:19;;;;;;;;;;;29.60;40.80;;;;;;5116521;28;975;-43
2022/05/18 14:07:49;;;;;;;;;;;29.60;40.80;;;;;;5115934;28;981;-44
2022/05/18 14:10:17;;;;;;;;;;;29.60;40.80;;;;;;5115929;28;1014;-45
2022/05/18 14:12:44;;;;;;;;;;;29.60;40.80;;;;;;5116950;28;1909;-44
2022/05/18 14:15:13;;;;;;;;;;;29.60;40.80;;;;;;5117650;28;945;-46
2022/05/18 14:17:40;;;;;;;;;;;29.60;40.90;;;;;;5118399;28;1015;-44
2022/05/18 14:20:08;;;;;;;;;;;29.60;40.80;;;;;;5117282;28;1002;-43
2022/05/18 14:22:38;;;;;;;;;;;29.60;40.70;;;;;;5118006;28;948;-44
2022/05/18 14:25:07;;;;;;;;;;;29.70;40.80;;;;;;5115428;28;959;-44
2022/05/18 14:27:53;;;;;;;;;;;29.70;40.80;;;;;;5116319;28;1094;-44
2022/05/18 14:30:21;;;;;;;;;;;29.60;40.80;;;;;;5117040;28;936;-43
2022/05/18 14:32:48;;;;;;;;;;;29.70;40.80;;;;;;5118446;28;1913;-44
2022/05/18 14:35:18;;;;;;;;;;;29.70;40.80;;;;;;5117873;28;1011;-43
2022/05/18 14:37:47;;;;;;;;;;;29.80;40.70;;;;;;5116040;28;955;-44
2022/05/18 14:40:15;;;;;;;;;;;29.80;40.70;;;;;;5114818;28;876;-44
2022/05/18 14:42:48;;;;;;;;;;;29.80;40.80;;;;;;5114920;28;983;-43
2022/05/18 14:45:24;;;;;;;;;;;29.80;40.80;;;;;;5114692;28;1004;-43
2022/05/18 14:47:52;;;;;;;;;;;29.80;40.70;;;;;;5114440;28;1000;-43
2022/05/18 14:50:24;;;;;;;;;;;29.80;40.70;;;;;;5116474;28;984;-44
2022/05/18 14:52:55;;;;;;;;;;;29.80;40.70;;;;;;5115967;28;1972;-44
2022/05/18 14:55:25;;;;;;;;;;;29.90;40.70;;;;;;5115624;28;922;-44
2022/05/18 14:57:52;;;;;;;;;;;29.90;40.70;;;;;;5115683;28;1027;-43
2022/05/18 15:00:20;;;;;;;;;;;29.90;40.70;;;;;;5115108;28;949;-44
2022/05/18 15:02:49;;;;;;;;;;;29.90;40.60;;;;;;5115407;28;979;-45
2022/05/18 15:05:20;;;;;;;;;;;30.00;40.70;;;;;;5114576;28;1056;-44